Aérodrome :
LOGIN :

S'inscrire | Disclaimer

   EN    FR    IT 

 










Légende :    VFR   VFR Marginal   IFR   IFR Intensif   IFR Très Intensif
Visi : 
Plafond : 
>= 8 km
>= 3000ft
5 à 8 km
1000 à 3000 ft
1500m à 5 km
500 à 1000 ft
800 à 1500m
200 à 500 ft
< 800m
< 200 ft
Symboles :   Orages  Brouillard  Fortes neiges  Fortes précipitations  Vent > 20 kt
SIGMETs :   Divers  Orages  Givrage  Turbulence  Onde Orograph.  Cendres Volcan.







- Altitude de l'aérodrome : 461 ft
- Code IATA : WIE


ETOU - Wiesbaden Army

DERNIER METAR :
  • 272358Z AUTO 01007KT 9999 CLR 05/M03 A2994 RMK AO2 SLP144 T00541028 10107 20051 57007

METARs EXPIRÉS :
  • 272258Z AUTO 01008KT 9999 CLR 06/M04 A2995 RMK AO2 SLP147 T00561038 401310028
  • 272158Z AUTO 01005KT 9999 OVC065 05/M03 A2996 RMK AO2 SLP151 T00541031

TAF TAF ETOU
Valide du 27 à 19h jusqu'au 29 à 01h UTC


271903Z 2719/2901 VRB06KT 9999 FEW050 QNH2991INS
BECMG 2810/2811 28006KT 9999 BKN050 QNH2993INS
TEMPO 2815/2818 8000 -SHRA
BECMG 2820/2821 28009KT 9999 SCT070 BKN080 QNH3000INS TX13/2815Z TNM02/2803Z
Pas de NOTAMs connus pour ce terrain.



MET'MAP, la Météo Aéronautique d'un coup d'oeil ! - Copyright ORBIFLY Décembre 2007 - Disclaimer

ORBIFLY MET'MAP TEAM :

Programmation & Développement : Alexandra Zaïnal
Conception & Développement : Baudouin d'Aumeries
Co-Programmation & Développement : Marc-Olivier Méhu
Soutien technique & logistique : Manuel Goepfert

Contact : metmap@orbifly.com




SOURCES & CREDITS :

   NOAA